createdAt,value
2018-01-08T00:00:07.105Z,2.90
2018-01-08T00:02:35.436Z,2.80
2018-01-08T00:05:09.806Z,2.80
2018-01-08T00:07:38.074Z,2.80
2018-01-08T00:10:05.550Z,2.80
2018-01-08T00:12:33.834Z,2.90
2018-01-08T00:15:07.945Z,2.80
2018-01-08T00:17:36.225Z,2.80
2018-01-08T00:20:06.422Z,2.70
2018-01-08T00:22:34.690Z,2.80
2018-01-08T00:25:15.797Z,2.70
2018-01-08T00:27:44.054Z,2.90
2018-01-08T00:33:04.973Z,2.80
2018-01-08T00:35:33.261Z,2.80
2018-01-08T00:38:09.567Z,2.80
2018-01-08T00:40:37.844Z,2.80
2018-01-08T00:43:06.096Z,2.80
2018-01-08T00:45:34.345Z,2.80
2018-01-08T00:50:55.776Z,2.80
2018-01-08T00:53:24.049Z,2.80
2018-01-08T00:55:52.299Z,2.80
2018-01-08T00:58:20.594Z,2.70
2018-01-08T01:03:46.950Z,2.80
2018-01-08T01:06:15.226Z,2.80
2018-01-08T01:08:43.507Z,2.80
2018-01-08T01:11:11.749Z,2.90
2018-01-08T01:13:41.182Z,2.80
2018-01-08T01:16:09.437Z,2.80
2018-01-08T01:19:01.277Z,2.80
2018-01-08T01:21:29.522Z,2.80
2018-01-08T01:24:01.741Z,2.90
2018-01-08T01:26:30.004Z,2.80
2018-01-08T01:29:14.865Z,2.80
2018-01-08T01:31:43.114Z,2.80
2018-01-08T01:34:29.081Z,2.80
2018-01-08T01:36:58.052Z,2.80
2018-01-08T01:39:29.784Z,2.80
2018-01-08T01:41:58.725Z,2.80
2018-01-08T01:44:26.983Z,2.80
2018-01-08T01:47:15.420Z,2.80
2018-01-08T01:49:43.661Z,2.80
2018-01-08T01:52:24.946Z,2.80
2018-01-08T01:54:53.206Z,2.80
2018-01-08T01:57:21.473Z,2.70
2018-01-08T01:59:49.741Z,2.80
2018-01-08T02:02:18.013Z,2.70
2018-01-08T02:04:46.264Z,2.80
2018-01-08T02:07:18.496Z,2.80
2018-01-08T02:09:46.749Z,2.70
2018-01-08T02:12:31.942Z,2.70
2018-01-08T02:15:00.201Z,2.80
2018-01-08T02:17:33.537Z,2.70
2018-01-08T02:20:01.046Z,2.70
2018-01-08T02:22:39.185Z,2.70
2018-01-08T02:25:07.482Z,2.80
2018-01-08T02:27:46.165Z,2.80
2018-01-08T02:30:14.437Z,2.80
2018-01-08T02:32:44.629Z,2.90
2018-01-08T02:35:12.911Z,2.90
2018-01-08T02:37:47.968Z,2.80
2018-01-08T02:40:16.253Z,2.80
2018-01-08T02:42:48.422Z,2.80
2018-01-08T02:45:16.661Z,2.80
2018-01-08T02:47:45.917Z,2.80
2018-01-08T02:50:14.187Z,2.90
2018-01-08T02:52:52.754Z,2.80
2018-01-08T02:55:21.041Z,2.80
2018-01-08T02:57:57.261Z,2.80
2018-01-08T03:00:25.564Z,2.90
2018-01-08T03:03:04.198Z,2.80
2018-01-08T03:05:32.462Z,2.80
2018-01-08T03:08:06.606Z,2.80
2018-01-08T03:10:34.091Z,2.80
2018-01-08T03:13:02.386Z,2.80
2018-01-08T03:15:29.876Z,2.80
2018-01-08T03:18:08.595Z,2.80
2018-01-08T03:20:36.858Z,2.70
2018-01-08T03:25:59.330Z,2.70
2018-01-08T03:28:27.622Z,2.70
2018-01-08T03:31:03.883Z,2.70
2018-01-08T03:33:32.178Z,2.70
2018-01-08T03:36:00.430Z,2.70
2018-01-08T03:38:30.094Z,2.80
2018-01-08T03:41:04.991Z,2.80
2018-01-08T03:43:33.278Z,2.80
2018-01-08T03:46:10.438Z,2.80
2018-01-08T03:48:39.088Z,2.80
2018-01-08T03:51:14.246Z,2.80
2018-01-08T03:53:42.548Z,2.70
2018-01-08T03:56:14.716Z,2.70
2018-01-08T03:58:42.967Z,2.70
2018-01-08T04:04:06.535Z,2.70
2018-01-08T04:06:34.832Z,2.70
2018-01-08T04:09:11.201Z,2.80
2018-01-08T04:11:39.494Z,2.80
2018-01-08T04:14:25.182Z,2.80
2018-01-08T04:16:52.716Z,2.70
2018-01-08T04:19:22.963Z,2.70
2018-01-08T04:21:51.263Z,2.70
2018-01-08T04:24:36.410Z,2.70
2018-01-08T04:27:04.703Z,2.70
2018-01-08T04:29:49.450Z,2.60
2018-01-08T04:32:17.710Z,2.60
2018-01-08T04:34:45.223Z,2.60
2018-01-08T04:37:13.529Z,2.60
2018-01-08T04:39:41.837Z,2.60
2018-01-08T04:42:10.103Z,2.60
2018-01-08T04:44:38.367Z,2.60
2018-01-08T04:47:06.667Z,2.60
2018-01-08T04:49:56.020Z,2.70
2018-01-08T04:52:24.308Z,2.60
2018-01-08T04:54:52.575Z,2.60
2018-01-08T04:57:20.869Z,2.60
2018-01-08T04:59:54.225Z,2.60
2018-01-08T05:02:22.510Z,2.60
2018-01-08T05:04:50.814Z,2.60
2018-01-08T05:07:19.119Z,2.70
2018-01-08T05:10:00.062Z,2.70
2018-01-08T05:12:29.198Z,2.60
2018-01-08T05:14:58.459Z,2.60
2018-01-08T05:17:26.726Z,2.70
2018-01-08T05:22:49.404Z,2.70
2018-01-08T05:25:17.690Z,2.70
2018-01-08T05:27:56.021Z,2.70
2018-01-08T05:30:24.325Z,2.70
2018-01-08T05:32:54.500Z,2.70
2018-01-08T05:35:22.801Z,2.70
2018-01-08T05:38:07.936Z,2.70
2018-01-08T05:40:36.238Z,2.70
2018-01-08T05:43:06.475Z,2.60
2018-01-08T05:45:34.738Z,2.70
2018-01-08T05:48:17.976Z,2.80
2018-01-08T05:50:46.275Z,2.80
2018-01-08T05:53:28.848Z,2.80
2018-01-08T05:55:58.433Z,2.80
2018-01-08T05:58:26.687Z,2.90
2018-01-08T06:00:54.971Z,2.90
2018-01-08T06:03:23.227Z,2.80
2018-01-08T06:05:51.531Z,2.90
2018-01-08T06:08:34.183Z,2.80
2018-01-08T06:11:02.471Z,2.80
2018-01-08T06:13:30.791Z,2.90
2018-01-08T06:16:00.119Z,2.90
2018-01-08T06:18:34.647Z,2.90
2018-01-08T06:21:02.919Z,2.90
2018-01-08T06:26:44.363Z,2.90
2018-01-08T06:29:12.652Z,2.90
2018-01-08T06:31:43.009Z,2.80
2018-01-08T06:34:11.286Z,2.80
2018-01-08T06:36:39.564Z,2.80
2018-01-08T06:39:07.865Z,2.80
2018-01-08T06:41:36.128Z,2.80
2018-01-08T06:44:05.344Z,2.80
2018-01-08T06:46:33.627Z,2.90
2018-01-08T06:49:08.995Z,2.90
2018-01-08T06:51:37.263Z,3.00
2018-01-08T06:54:05.537Z,2.90
2018-01-08T06:56:33.839Z,2.90
2018-01-08T06:59:02.106Z,2.80
2018-01-08T07:01:49.500Z,2.80
2018-01-08T07:04:17.750Z,2.80
2018-01-08T07:12:46.520Z,2.80
2018-01-08T07:15:14.793Z,2.90
2018-01-08T07:17:51.039Z,2.80
2018-01-08T07:20:19.298Z,2.80
2018-01-08T07:22:57.286Z,2.90
2018-01-08T07:25:25.562Z,2.90
2018-01-08T07:28:04.261Z,2.80
2018-01-08T07:30:32.520Z,2.70
2018-01-08T07:33:00.824Z,2.70
2018-01-08T07:35:30.113Z,2.70
2018-01-08T07:37:58.872Z,2.70
2018-01-08T07:40:29.162Z,2.60
2018-01-08T07:42:58.253Z,2.60
2018-01-08T07:45:29.296Z,2.60
2018-01-08T07:47:58.249Z,2.50
2018-01-08T07:50:26.539Z,2.50
2018-01-08T07:52:54.796Z,2.50
2018-01-08T07:55:23.092Z,2.50
2018-01-08T07:57:51.356Z,2.50
2018-01-08T08:00:29.415Z,2.60
2018-01-08T08:02:57.671Z,2.60
2018-01-08T08:05:25.935Z,2.50
2018-01-08T08:07:54.227Z,2.50
2018-01-08T08:10:22.535Z,2.50
2018-01-08T08:12:50.801Z,2.60
2018-01-08T08:15:20.125Z,2.60
2018-01-08T08:17:48.338Z,2.60
2018-01-08T08:20:19.947Z,2.50
2018-01-08T08:22:47.491Z,2.50
2018-01-08T08:25:16.755Z,2.50
2018-01-08T08:27:45.024Z,2.50
2018-01-08T08:30:19.904Z,2.50
2018-01-08T08:32:48.176Z,2.50
2018-01-08T08:35:18.399Z,2.50
2018-01-08T08:37:46.666Z,2.50
2018-01-08T08:46:14.831Z,2.60
2018-01-08T08:48:43.173Z,2.50
2018-01-08T08:51:21.161Z,2.50
2018-01-08T08:53:49.456Z,2.50
2018-01-08T08:56:22.309Z,2.40
2018-01-08T08:58:50.595Z,2.50
2018-01-08T09:01:18.861Z,2.50
2018-01-08T09:03:47.151Z,2.50
2018-01-08T09:06:25.195Z,2.60
2018-01-08T09:08:53.479Z,2.70
2018-01-08T09:11:21.772Z,2.70
2018-01-08T09:13:50.034Z,2.60
2018-01-08T09:16:22.698Z,2.60
2018-01-08T09:18:50.946Z,2.60
2018-01-08T09:21:19.242Z,2.60
2018-01-08T09:23:47.520Z,2.70
2018-01-08T09:26:19.655Z,2.70
2018-01-08T09:28:47.925Z,2.70
2018-01-08T09:31:16.183Z,2.70
2018-01-08T09:33:44.475Z,2.70
2018-01-08T09:36:12.736Z,2.70
2018-01-08T09:38:41.028Z,2.80
2018-01-08T09:41:09.290Z,2.70
2018-01-08T09:43:37.578Z,2.80
2018-01-08T09:46:16.628Z,2.70
2018-01-08T09:48:44.921Z,2.70
2018-01-08T09:51:13.173Z,2.80
2018-01-08T09:53:41.435Z,2.80
2018-01-08T09:56:09.718Z,2.80
2018-01-08T09:58:38.004Z,2.90
2018-01-08T10:01:06.286Z,3.00
2018-01-08T10:03:46.266Z,3.00
2018-01-08T10:06:26.393Z,2.90
2018-01-08T10:09:06.499Z,3.10
2018-01-08T10:11:46.606Z,3.00
2018-01-08T10:14:36.347Z,3.00
2018-01-08T10:17:21.366Z,3.00
2018-01-08T10:20:08.510Z,3.10
2018-01-08T10:22:36.800Z,3.10
2018-01-08T10:25:05.082Z,3.10
2018-01-08T10:27:33.378Z,3.20
2018-01-08T10:30:07.288Z,3.30
2018-01-08T10:32:34.814Z,3.20
2018-01-08T10:35:06.451Z,3.50
2018-01-08T10:37:34.748Z,3.50
2018-01-08T10:40:26.253Z,3.50
2018-01-08T10:43:00.136Z,3.60
2018-01-08T10:45:36.042Z,3.80
2018-01-08T10:48:13.444Z,3.90
2018-01-08T10:50:47.267Z,3.80
2018-01-08T10:53:30.463Z,4.00
2018-01-08T10:55:59.682Z,4.20
2018-01-08T10:58:28.954Z,4.20
2018-01-08T11:01:03.909Z,4.20
2018-01-08T11:03:37.723Z,4.30
2018-01-08T11:06:11.354Z,4.30
2018-01-08T11:08:39.627Z,4.30
2018-01-08T11:11:11.557Z,4.40
2018-01-08T11:13:59.043Z,4.40
2018-01-08T11:16:28.525Z,4.50
2018-01-08T11:21:49.799Z,4.50
2018-01-08T11:24:18.066Z,4.60
2018-01-08T11:26:46.383Z,4.50
2018-01-08T11:29:14.642Z,4.50
2018-01-08T11:31:42.910Z,4.50
2018-01-08T11:34:11.193Z,4.60
2018-01-08T11:36:46.561Z,4.60
2018-01-08T11:39:14.891Z,4.60
2018-01-08T11:41:43.158Z,4.60
2018-01-08T11:44:11.455Z,4.60
2018-01-08T11:46:39.736Z,4.70
2018-01-08T11:49:24.984Z,4.70
2018-01-08T11:51:53.250Z,4.80
2018-01-08T11:54:38.943Z,4.80
2018-01-08T11:57:07.212Z,4.80
2018-01-08T11:59:35.466Z,4.90
2018-01-08T12:02:03.755Z,4.90
2018-01-08T12:07:25.246Z,4.80
2018-01-08T12:09:53.530Z,5.00
2018-01-08T12:15:14.752Z,5.00
2018-01-08T12:17:46.325Z,5.00
2018-01-08T12:20:14.610Z,5.00
2018-01-08T12:22:43.807Z,5.00
2018-01-08T12:25:12.088Z,5.00
2018-01-08T12:27:42.293Z,5.10
2018-01-08T12:30:10.576Z,5.00
2018-01-08T12:32:38.880Z,5.00
2018-01-08T12:35:08.132Z,4.90
2018-01-08T12:37:36.414Z,5.00
2018-01-08T12:40:09.199Z,5.00
2018-01-08T12:42:37.479Z,5.00
2018-01-08T12:45:12.793Z,5.00
2018-01-08T12:47:41.075Z,5.00
2018-01-08T12:50:10.330Z,5.00
2018-01-08T12:52:38.577Z,5.00
2018-01-08T12:55:08.774Z,5.00
2018-01-08T12:57:37.040Z,5.10
2018-01-08T13:00:15.196Z,5.20
2018-01-08T13:02:43.496Z,5.30
2018-01-08T13:05:11.786Z,5.30
2018-01-08T13:07:43.166Z,5.20
2018-01-08T13:10:11.479Z,5.20
2018-01-08T13:12:45.983Z,5.20
2018-01-08T13:15:14.279Z,5.20
2018-01-08T13:17:42.544Z,5.20
2018-01-08T13:20:10.811Z,5.10
2018-01-08T13:22:39.149Z,5.10
2018-01-08T13:25:07.421Z,5.20
2018-01-08T13:27:35.754Z,5.30
2018-01-08T13:30:04.026Z,5.20
2018-01-08T13:32:32.287Z,5.30
2018-01-08T13:35:12.769Z,5.20
2018-01-08T13:37:41.023Z,5.20
2018-01-08T13:43:05.789Z,5.20
2018-01-08T13:45:34.087Z,5.10
2018-01-08T13:48:02.387Z,5.10
2018-01-08T13:50:29.918Z,5.10
2018-01-08T13:53:00.959Z,5.20
2018-01-08T13:55:30.538Z,5.20
2018-01-08T13:58:08.692Z,5.30
2018-01-08T14:00:37.005Z,5.30
2018-01-08T14:03:19.587Z,5.20
2018-01-08T14:05:47.111Z,5.20
2018-01-08T14:08:35.263Z,5.20
2018-01-08T14:11:03.529Z,5.10
2018-01-08T14:16:48.810Z,5.10
2018-01-08T14:19:17.070Z,5.20
2018-01-08T14:21:48.993Z,5.20
2018-01-08T14:24:17.283Z,5.20
2018-01-08T14:29:38.499Z,5.20
2018-01-08T14:32:06.790Z,5.30
2018-01-08T14:34:35.094Z,5.30
2018-01-08T14:37:03.387Z,5.20
2018-01-08T14:39:42.431Z,5.30
2018-01-08T14:42:10.741Z,5.30
2018-01-08T14:44:44.784Z,5.40
2018-01-08T14:47:13.071Z,5.40
2018-01-08T14:49:44.742Z,5.40
2018-01-08T14:52:13.026Z,5.30
2018-01-08T14:54:41.346Z,5.30
2018-01-08T14:57:09.637Z,5.30
2018-01-08T14:59:56.908Z,5.30
2018-01-08T15:02:25.175Z,5.30
2018-01-08T15:04:53.508Z,5.30
2018-01-08T15:07:21.772Z,5.30
2018-01-08T15:09:53.146Z,5.30
2018-01-08T15:12:21.433Z,5.30
2018-01-08T15:14:57.171Z,5.20
2018-01-08T15:17:25.436Z,5.20
2018-01-08T15:19:53.745Z,5.10
2018-01-08T15:22:35.250Z,5.10
2018-01-08T15:25:03.544Z,5.10
2018-01-08T15:30:24.780Z,5.10
2018-01-08T15:32:53.036Z,4.90
2018-01-08T15:38:18.291Z,4.90
2018-01-08T15:40:46.571Z,4.80
2018-01-08T15:43:14.849Z,4.80
2018-01-08T15:45:43.124Z,4.70
2018-01-08T15:48:11.415Z,4.70
2018-01-08T15:50:39.680Z,4.70
2018-01-08T15:53:07.983Z,4.60
2018-01-08T15:55:36.243Z,4.60
2018-01-08T15:58:04.534Z,4.70
2018-01-08T16:00:32.833Z,4.60
2018-01-08T16:03:04.945Z,4.60
2018-01-08T16:05:33.235Z,4.60
2018-01-08T16:08:01.558Z,4.60
2018-01-08T16:10:30.162Z,4.60
2018-01-08T16:13:02.185Z,4.50
2018-01-08T16:15:30.136Z,4.50
2018-01-08T16:18:05.959Z,4.40
2018-01-08T16:20:33.499Z,4.40
2018-01-08T16:26:03.340Z,4.40
2018-01-08T16:28:31.608Z,4.40
2018-01-08T16:31:01.034Z,4.50
2018-01-08T16:33:30.147Z,4.50
2018-01-08T16:36:04.804Z,4.40
2018-01-08T16:38:33.096Z,4.40
2018-01-08T16:41:01.410Z,4.40
2018-01-08T16:43:30.020Z,4.40
2018-01-08T16:46:06.154Z,4.50
2018-01-08T16:48:34.444Z,4.30
2018-01-08T16:51:21.200Z,4.40
2018-01-08T16:53:49.485Z,4.40
2018-01-08T16:56:17.816Z,4.40
2018-01-08T16:58:46.080Z,4.40
2018-01-08T17:01:14.388Z,4.50
2018-01-08T17:03:58.602Z,4.50
2018-01-08T17:06:26.860Z,4.50
2018-01-08T17:08:56.101Z,4.50
2018-01-08T17:11:25.250Z,4.40
2018-01-08T17:14:06.638Z,4.40
2018-01-08T17:16:34.893Z,4.40
2018-01-08T17:19:03.922Z,4.40
2018-01-08T17:21:32.200Z,4.40
2018-01-08T17:24:03.696Z,4.40
2018-01-08T17:26:31.979Z,4.40
2018-01-08T17:29:00.374Z,4.40
2018-01-08T17:31:29.222Z,4.40
2018-01-08T17:34:10.487Z,4.30
2018-01-08T17:37:02.475Z,4.30
2018-01-08T17:42:21.412Z,4.30
2018-01-08T17:45:02.456Z,4.30
2018-01-08T17:47:30.718Z,4.30
2018-01-08T17:50:00.606Z,4.20
2018-01-08T17:52:29.554Z,4.20
2018-01-08T17:54:58.928Z,4.20
2018-01-08T17:57:28.870Z,4.20
2018-01-08T18:00:02.350Z,4.30
2018-01-08T18:02:30.650Z,4.20
2018-01-08T18:05:05.173Z,4.20
2018-01-08T18:07:33.457Z,4.20
2018-01-08T18:10:05.242Z,4.20
2018-01-08T18:12:33.526Z,4.20
2018-01-08T18:15:01.917Z,4.30
2018-01-08T18:17:30.252Z,4.20
2018-01-08T18:20:01.962Z,4.30
2018-01-08T18:22:30.292Z,4.20
2018-01-08T18:24:59.608Z,4.20
2018-01-08T18:27:28.894Z,4.10
2018-01-08T18:30:10.854Z,4.20
2018-01-08T18:32:39.165Z,4.20
2018-01-08T18:35:22.920Z,4.20
2018-01-08T18:37:51.229Z,4.20
2018-01-08T18:40:19.576Z,4.10
2018-01-08T18:42:47.842Z,4.20
2018-01-08T18:45:17.182Z,4.20
2018-01-08T18:47:45.480Z,4.20
2018-01-08T18:50:20.925Z,4.10
2018-01-08T18:52:49.236Z,4.00
2018-01-08T18:55:21.378Z,4.00
2018-01-08T18:57:49.676Z,4.00
2018-01-08T19:00:24.421Z,4.00
2018-01-08T19:02:52.714Z,4.00
2018-01-08T19:05:20.996Z,4.00
2018-01-08T19:07:49.308Z,4.00
2018-01-08T19:10:21.291Z,4.00
2018-01-08T19:12:48.819Z,4.00
2018-01-08T19:15:18.077Z,4.00
2018-01-08T19:17:46.382Z,3.90
2018-01-08T19:20:21.091Z,3.90
2018-01-08T19:22:49.386Z,3.90
2018-01-08T19:25:34.742Z,3.90
2018-01-08T19:28:03.050Z,3.90
2018-01-08T19:30:33.364Z,3.80
2018-01-08T19:33:01.640Z,3.80
2018-01-08T19:35:42.851Z,3.80
2018-01-08T19:38:11.170Z,3.70
2018-01-08T19:40:39.596Z,3.70
2018-01-08T19:43:07.900Z,3.70
2018-01-08T19:45:39.553Z,3.70
2018-01-08T19:48:07.889Z,3.80
2018-01-08T19:50:36.266Z,3.80
2018-01-08T19:53:03.804Z,3.80
2018-01-08T19:55:32.191Z,3.80
2018-01-08T19:58:00.922Z,3.70
2018-01-08T20:00:46.702Z,3.70
2018-01-08T20:03:15.011Z,3.60
2018-01-08T20:05:53.069Z,3.70
2018-01-08T20:08:21.407Z,3.70
2018-01-08T20:10:49.731Z,3.70
2018-01-08T20:13:18.025Z,3.60
2018-01-08T20:15:50.700Z,3.70
2018-01-08T20:18:19.002Z,3.70
2018-01-08T20:20:50.739Z,3.70
2018-01-08T20:23:19.086Z,3.60
2018-01-08T20:25:52.494Z,3.60
2018-01-08T20:28:20.852Z,3.60
2018-01-08T20:30:59.610Z,3.70
2018-01-08T20:33:27.135Z,3.70
2018-01-08T20:36:08.411Z,3.60
2018-01-08T20:38:36.787Z,3.60
2018-01-08T20:41:05.130Z,3.50
2018-01-08T20:43:33.431Z,3.60
2018-01-08T20:46:08.885Z,3.60
2018-01-08T20:48:37.225Z,3.70
2018-01-08T20:51:12.709Z,3.60
2018-01-08T20:53:41.022Z,3.60
2018-01-08T20:56:26.699Z,3.60
2018-01-08T20:58:55.006Z,3.60
2018-01-08T21:01:24.276Z,3.70
2018-01-08T21:03:52.624Z,3.60
2018-01-08T21:06:21.655Z,3.60
2018-01-08T21:08:50.002Z,3.70
2018-01-08T21:11:20.318Z,3.60
2018-01-08T21:13:56.108Z,3.60
2018-01-08T21:16:24.442Z,3.70
2018-01-08T21:19:05.947Z,3.60
2018-01-08T21:21:34.294Z,3.60
2018-01-08T21:24:04.623Z,3.60
2018-01-08T21:26:32.962Z,3.60
2018-01-08T21:29:07.495Z,3.50
2018-01-08T21:31:48.806Z,3.60
2018-01-08T21:34:17.140Z,3.60
2018-01-08T21:36:46.464Z,3.60
2018-01-08T21:39:14.775Z,3.60
2018-01-08T21:41:51.155Z,3.60
2018-01-08T21:44:19.476Z,3.60
2018-01-08T21:46:49.813Z,3.50
2018-01-08T21:49:18.126Z,3.50
2018-01-08T21:51:51.761Z,3.60
2018-01-08T21:54:20.071Z,3.50
2018-01-08T21:56:48.411Z,3.50
2018-01-08T21:59:16.722Z,3.70
2018-01-08T22:01:45.099Z,3.60
2018-01-08T22:04:13.441Z,3.60
2018-01-08T22:06:41.773Z,3.60
2018-01-08T22:12:09.594Z,3.60
2018-01-08T22:14:37.941Z,3.60
2018-01-08T22:17:10.006Z,3.60
2018-01-08T22:19:38.336Z,3.70
2018-01-08T22:22:14.995Z,3.60
2018-01-08T22:24:43.345Z,3.60
2018-01-08T22:27:26.863Z,3.50
2018-01-08T22:29:55.230Z,3.50
2018-01-08T22:32:23.591Z,3.40
2018-01-08T22:34:51.900Z,3.40
2018-01-08T22:37:20.314Z,3.50
2018-01-08T22:39:48.666Z,3.50
2018-01-08T22:42:18.028Z,3.50
2018-01-08T22:44:46.329Z,3.50
2018-01-08T22:47:25.849Z,3.50
2018-01-08T22:49:54.184Z,3.50
2018-01-08T22:52:30.103Z,3.50
2018-01-08T22:54:59.441Z,3.40
2018-01-08T22:57:40.466Z,3.40
2018-01-08T23:00:08.791Z,3.40
2018-01-08T23:02:40.136Z,3.40
2018-01-08T23:05:18.407Z,3.40
2018-01-08T23:07:46.712Z,3.40
2018-01-08T23:10:24.582Z,3.40
2018-01-08T23:12:52.933Z,3.40
2018-01-08T23:15:25.072Z,3.40
2018-01-08T23:17:53.417Z,3.30
2018-01-08T23:23:14.690Z,3.30
2018-01-08T23:25:42.989Z,3.30
2018-01-08T23:28:16.463Z,3.30
2018-01-08T23:30:44.018Z,3.30
2018-01-08T23:36:05.315Z,3.20
2018-01-08T23:38:33.648Z,3.20
2018-01-08T23:41:01.931Z,3.20
2018-01-08T23:43:30.259Z,3.20
2018-01-08T23:48:52.171Z,3.20
2018-01-08T23:51:20.491Z,3.20
2018-01-08T23:54:08.068Z,3.20
2018-01-08T23:56:36.332Z,3.10
2018-01-08T23:59:04.607Z,3.10
